logo dgac
Lunes 27 de Septiembre del 2021
Buscar por aerodromo o helipuerto
Ingrese nombre de aeródromo, localidad o designador OACI:

Aeródromo: Arturo Merino Benitez (INTL) (PUB) (SCEL)

Ubicación: Santiago, XIII Región, Chile (33º 23' 39'' S, 70º 47' 37'' W) Ver ubicación en el mapa

Pistas

Orientación Dimensión Pendiente Superficie Resistencia APCH THR RWY PAPI
17R/35L 3.800 x 45 ASPH PCN 115 F/D/W/T Sí (3º)
17L/35R 3.750 x 55 ASPH PCN 63 F/B/W/T Sí (3º)
Horas de operación H24
Elevación 474 m / 1555 ft
Otra Información Adm : D.G.A.C
Uso : PUB
Dirección :Av. Aviador David Fuentes 2199, Comuna de Pudahuel, Santiago - Chile
TEL (56-2) 24363000
TEL ARO H24 56-224363227/224363584/224363524 CEL +56982391251
Email : operaciones_amb@dgac.gob.cl


Otra información ver AIP-Chile Volumen I AD 2.9-1 SCEL
CCCM/FCCV Descargar
andera de Chile
Mapa de Arturo Merino Benitez (INTL) (PUB) (SCEL)

Último METAR

METAR SCEL 270000Z 17007KT 140V220 CAVOK 17/07 Q1017 NOSIG

Último TAF

TAF SCEL 262200Z 2700/2724 20013KT CAVOK TX26/2718Z TN07/2710Z BECMG 2702/2704 24005KT TEMPO 2708/2712 6000 NSC BECMG 2716/2718 20012KT

Últimas fotos cámaras

Imagen aerodromo Arturo Merino Benitez (INTL) (PUB) (SCEL) Sur tomada el 19-09-2021 10:26:02 Imagen aerodromo Arturo Merino Benitez (INTL) (PUB) (SCEL) Norte tomada el 19-09-2021 10:25:43

Último NOTAM

A4553/21 NOTAMN Q)SCEZ/QMPLC/IV/BO/A/000/999/3324S07048W005 A)SCEL B)2109280200 C)2109280500 E)PRKG 27 CLSD